Time;durP1;ratioP1;P1;durP2;ratioP2;P2;SDS_P1;SDS_P2;PMS_P1;PMS_P2;Temp;Humidity;BMP_temperature;BMP_pressure;BME280_temperature;BME280_humidity;BME280_pressure;Samples;Min_cycle;Max_cycle;Signal;HPM_P1;HPM_P2
2022/12/20 00:02:01;;;;;;;139.45;98.13;;;;;;;;;;5103117;28;20043;-75
2022/12/20 00:04:26;;;;;;;109.60;79.82;;;;;;;;;;5103145;28;20043;-73
2022/12/20 00:06:51;;;;;;;100.40;73.13;;;;;;;;;;5103727;28;20034;-75
2022/12/20 00:09:17;;;;;;;124.25;90.07;;;;;;;;;;5090933;28;20065;-74
2022/12/20 00:11:42;;;;;;;104.75;78.50;;;;;;;;;;5090549;28;20034;-72
2022/12/20 00:14:08;;;;;;;110.32;81.68;;;;;;;;;;5102063;28;20022;-75
2022/12/20 00:16:34;;;;;;;156.60;112.72;;;;;;;;;;5091587;28;20310;-74
2022/12/20 00:19:01;;;;;;;90.68;67.20;;;;;;;;;;5101347;28;20038;-72
2022/12/20 00:21:27;;;;;;;87.63;66.20;;;;;;;;;;5102603;28;20046;-72
2022/12/20 00:23:52;;;;;;;95.97;74.57;;;;;;;;;;5102898;28;20406;-72
2022/12/20 00:26:19;;;;;;;104.47;85.60;;;;;;;;;;5090537;28;20759;-73
2022/12/20 00:28:45;;;;;;;91.65;69.10;;;;;;;;;;5093865;28;20055;-74
2022/12/20 00:31:11;;;;;;;102.50;79.43;;;;;;;;;;5097748;28;20066;-72
2022/12/20 00:33:38;;;;;;;101.40;74.15;;;;;;;;;;5103376;28;20119;-73
2022/12/20 00:36:04;;;;;;;115.70;85.60;;;;;;;;;;5092046;28;20439;-74
2022/12/20 00:38:29;;;;;;;82.38;59.58;;;;;;;;;;5103192;28;20427;-73
2022/12/20 00:40:58;;;;;;;106.22;72.70;;;;;;;;;;5089989;28;20039;-73
2022/12/20 00:43:24;;;;;;;95.75;70.75;;;;;;;;;;5091363;28;20503;-72
2022/12/20 00:45:49;;;;;;;102.22;78.20;;;;;;;;;;5102493;28;20023;-72
2022/12/20 00:48:14;;;;;;;108.85;82.50;;;;;;;;;;5096858;28;20163;-73
2022/12/20 00:50:40;;;;;;;103.95;78.00;;;;;;;;;;5091407;28;20052;-72
2022/12/20 00:53:08;;;;;;;84.78;62.90;;;;;;;;;;5102246;28;20122;-72
2022/12/20 00:55:34;;;;;;;126.40;88.43;;;;;;;;;;5101426;28;20015;-75
2022/12/20 00:57:59;;;;;;;105.53;71.35;;;;;;;;;;5089413;28;20038;-73
2022/12/20 01:00:24;;;;;;;128.80;90.22;;;;;;;;;;5102551;28;20078;-72
2022/12/20 01:02:50;;;;;;;116.63;83.50;;;;;;;;;;5102663;28;20457;-72
2022/12/20 01:05:15;;;;;;;96.40;69.97;;;;;;;;;;5102347;28;20015;-73
2022/12/20 01:07:40;;;;;;;73.88;51.78;;;;;;;;;;5099154;28;20041;-73
2022/12/20 01:10:06;;;;;;;88.95;63.25;;;;;;;;;;5092670;28;20047;-74
2022/12/20 01:12:31;;;;;;;85.15;55.28;;;;;;;;;;5093241;28;20071;-76
2022/12/20 01:14:57;;;;;;;114.30;71.15;;;;;;;;;;5098526;28;20814;-74
2022/12/20 01:17:22;;;;;;;86.40;56.80;;;;;;;;;;5102019;28;20042;-73
2022/12/20 01:19:47;;;;;;;79.65;57.17;;;;;;;;;;5089560;28;22774;-75
2022/12/20 01:22:13;;;;;;;83.68;59.67;;;;;;;;;;5101953;28;20573;-73
2022/12/20 01:24:38;;;;;;;76.88;53.35;;;;;;;;;;5102520;28;20465;-73
2022/12/20 01:27:03;;;;;;;77.05;54.08;;;;;;;;;;5095181;28;20032;-73
2022/12/20 01:29:29;;;;;;;70.22;50.08;;;;;;;;;;5094267;28;20113;-75
2022/12/20 01:31:54;;;;;;;98.53;68.25;;;;;;;;;;5092912;28;20023;-73
2022/12/20 01:34:20;;;;;;;70.00;49.90;;;;;;;;;;5101538;28;20034;-74
2022/12/20 01:36:45;;;;;;;71.63;50.17;;;;;;;;;;5102555;28;20028;-72
2022/12/20 01:39:12;;;;;;;76.55;57.58;;;;;;;;;;5095796;28;20023;-77
2022/12/20 01:41:37;;;;;;;70.88;51.97;;;;;;;;;;5092921;28;20458;-73
2022/12/20 01:44:23;;;;;;;104.07;76.55;;;;;;;;;;5091608;28;20030;-72
2022/12/20 01:46:49;;;;;;;84.25;60.53;;;;;;;;;;5100839;28;20031;-73
2022/12/20 01:49:21;;;;;;;77.00;55.58;;;;;;;;;;5104747;28;20041;-76
2022/12/20 01:51:48;;;;;;;63.88;48.95;;;;;;;;;;5096422;28;20366;-74
2022/12/20 01:54:25;;;;;;;72.38;50.22;;;;;;;;;;5103474;28;20027;-75
2022/12/20 01:56:52;;;;;;;70.13;50.90;;;;;;;;;;5100400;28;20032;-72
2022/12/20 01:59:18;;;;;;;71.38;50.90;;;;;;;;;;5097887;28;20042;-76
2022/12/20 02:01:44;;;;;;;68.30;48.78;;;;;;;;;;5105398;28;20036;-77
2022/12/20 02:04:09;;;;;;;69.40;50.17;;;;;;;;;;5105140;28;20458;-73
2022/12/20 02:06:35;;;;;;;75.88;52.97;;;;;;;;;;5105710;28;20457;-73
2022/12/20 02:09:01;;;;;;;70.68;51.33;;;;;;;;;;5094422;28;20031;-73
2022/12/20 02:11:35;;;;;;;65.15;48.35;;;;;;;;;;5102754;28;20046;-73
2022/12/20 02:14:15;;;;;;;64.32;48.30;;;;;;;;;;5096242;28;20324;-73
2022/12/20 02:16:59;;;;;;;62.20;46.63;;;;;;;;;;5105400;28;20028;-77
2022/12/20 02:19:43;;;;;;;65.63;48.90;;;;;;;;;;5098792;28;20019;-73
2022/12/20 02:22:08;;;;;;;58.65;44.05;;;;;;;;;;5091906;28;20044;-75
2022/12/20 02:24:52;;;;;;;88.38;65.25;;;;;;;;;;5105292;28;20169;-74
2022/12/20 02:27:24;;;;;;;77.80;55.47;;;;;;;;;;5097278;28;20027;-72
2022/12/20 02:30:09;;;;;;;56.88;41.47;;;;;;;;;;5100244;28;20413;-73
2022/12/20 02:32:41;;;;;;;77.38;55.92;;;;;;;;;;5096648;28;20041;-73
2022/12/20 02:35:07;;;;;;;89.03;63.50;;;;;;;;;;5102637;28;20511;-75
2022/12/20 02:37:33;;;;;;;80.10;57.08;;;;;;;;;;5104510;28;20028;-73
2022/12/20 02:39:59;;;;;;;71.57;51.90;;;;;;;;;;5099151;28;20068;-73
2022/12/20 02:42:25;;;;;;;68.45;49.70;;;;;;;;;;5091562;28;20038;-76
2022/12/20 02:47:39;;;;;;;86.93;61.60;;;;;;;;;;5104776;28;20023;-72
2022/12/20 02:50:06;;;;;;;105.13;72.15;;;;;;;;;;5104271;28;20023;-75
2022/12/20 02:52:32;;;;;;;88.38;61.90;;;;;;;;;;5104719;28;20023;-73
2022/12/20 02:54:58;;;;;;;87.95;59.63;;;;;;;;;;5095623;28;20023;-72
2022/12/20 02:57:47;;;;;;;93.38;64.57;;;;;;;;;;5093957;28;20461;-72
2022/12/20 03:00:14;;;;;;;80.07;56.78;;;;;;;;;;5089888;28;20192;-73
2022/12/20 03:05:25;;;;;;;86.57;60.45;;;;;;;;;;5104332;28;20043;-74
2022/12/20 03:07:52;;;;;;;84.32;64.50;;;;;;;;;;5098248;28;20446;-73
2022/12/20 03:10:18;;;;;;;83.03;56.55;;;;;;;;;;5084019;28;20038;-72
2022/12/20 03:12:43;;;;;;;141.55;92.00;;;;;;;;;;5083617;28;20031;-76
2022/12/20 03:15:09;;;;;;;110.43;73.47;;;;;;;;;;5094970;28;20023;-73
2022/12/20 03:17:34;;;;;;;110.88;72.47;;;;;;;;;;5098509;28;20073;-74
2022/12/20 03:19:59;;;;;;;113.43;73.88;;;;;;;;;;5103723;28;20027;-73
2022/12/20 03:22:25;;;;;;;107.43;72.70;;;;;;;;;;5103739;28;20089;-73
2022/12/20 03:24:51;;;;;;;123.55;86.47;;;;;;;;;;5104560;28;20020;-72
2022/12/20 03:27:17;;;;;;;111.63;78.38;;;;;;;;;;5097676;27;20020;-74
2022/12/20 03:29:43;;;;;;;88.90;62.53;;;;;;;;;;5097755;28;20932;-75
2022/12/20 03:32:08;;;;;;;74.28;51.53;;;;;;;;;;5103943;28;20123;-73
2022/12/20 03:34:34;;;;;;;60.80;44.78;;;;;;;;;;5103738;28;20494;-73
2022/12/20 03:36:59;;;;;;;62.90;45.67;;;;;;;;;;5095772;28;20015;-72
2022/12/20 03:39:24;;;;;;;89.65;64.72;;;;;;;;;;5100923;28;20035;-72
2022/12/20 03:41:50;;;;;;;109.93;76.78;;;;;;;;;;5104132;28;20066;-72
2022/12/20 03:44:15;;;;;;;86.43;63.22;;;;;;;;;;5103746;28;20023;-73
2022/12/20 03:46:40;;;;;;;77.60;56.13;;;;;;;;;;5104017;28;20080;-75
2022/12/20 03:49:06;;;;;;;72.47;52.75;;;;;;;;;;5103315;28;20051;-74
2022/12/20 03:51:31;;;;;;;65.13;47.53;;;;;;;;;;5104135;28;20032;-72
2022/12/20 03:53:56;;;;;;;60.92;44.38;;;;;;;;;;5103932;28;20028;-76
2022/12/20 03:56:22;;;;;;;58.95;43.22;;;;;;;;;;5099649;28;20027;-73
2022/12/20 03:58:47;;;;;;;55.30;39.92;;;;;;;;;;5094713;28;20023;-74
2022/12/20 04:01:17;;;;;;;93.90;58.42;;;;;;;;;;5102554;28;20032;-73
2022/12/20 04:03:42;;;;;;;63.92;44.88;;;;;;;;;;5102883;28;20054;-73
2022/12/20 04:06:07;;;;;;;78.00;54.78;;;;;;;;;;5102634;28;20063;-72
2022/12/20 04:08:33;;;;;;;75.97;52.40;;;;;;;;;;5103083;28;20019;-72
2022/12/20 04:11:16;;;;;;;67.70;47.50;;;;;;;;;;5103221;28;20042;-72
2022/12/20 04:13:43;;;;;;;74.88;50.83;;;;;;;;;;5103262;28;20023;-72
2022/12/20 04:16:08;;;;;;;80.82;54.85;;;;;;;;;;5093237;28;20011;-74
2022/12/20 04:18:34;;;;;;;117.85;74.78;;;;;;;;;;5102253;28;20045;-74
2022/12/20 04:20:59;;;;;;;136.98;91.68;;;;;;;;;;5102765;28;20072;-75
2022/12/20 04:23:25;;;;;;;171.30;112.53;;;;;;;;;;5102974;28;20023;-72
2022/12/20 04:25:50;;;;;;;200.88;133.80;;;;;;;;;;5102787;28;20950;-73
2022/12/20 04:28:16;;;;;;;207.82;136.57;;;;;;;;;;5092514;28;20077;-72
2022/12/20 04:30:41;;;;;;;219.25;135.20;;;;;;;;;;5099762;28;20106;-72
2022/12/20 04:33:06;;;;;;;228.38;137.55;;;;;;;;;;5103135;28;20062;-72
2022/12/20 04:35:32;;;;;;;183.68;114.03;;;;;;;;;;5102390;28;20027;-73
2022/12/20 04:37:57;;;;;;;184.02;109.18;;;;;;;;;;5102616;28;20066;-73
2022/12/20 04:40:22;;;;;;;187.02;112.38;;;;;;;;;;5101864;28;20047;-74
2022/12/20 04:42:48;;;;;;;148.10;100.50;;;;;;;;;;5090718;28;20031;-72
2022/12/20 04:45:13;;;;;;;137.90;96.35;;;;;;;;;;5102617;28;20433;-74
2022/12/20 04:47:38;;;;;;;151.75;99.53;;;;;;;;;;5102844;28;20201;-74
2022/12/20 04:50:05;;;;;;;154.85;106.40;;;;;;;;;;5093831;28;20034;-74
2022/12/20 04:55:15;;;;;;;167.98;113.97;;;;;;;;;;5101916;28;20111;-72
2022/12/20 04:57:40;;;;;;;183.43;129.63;;;;;;;;;;5089327;28;20111;-75
2022/12/20 05:00:06;;;;;;;163.43;114.00;;;;;;;;;;5088314;28;20093;-76
2022/12/20 05:02:31;;;;;;;164.45;112.22;;;;;;;;;;5088515;28;20081;-73
2022/12/20 05:04:56;;;;;;;147.27;108.22;;;;;;;;;;5088152;28;20027;-77
2022/12/20 05:07:22;;;;;;;189.20;146.38;;;;;;;;;;5088695;28;20122;-75
2022/12/20 05:09:47;;;;;;;181.77;143.68;;;;;;;;;;5100525;28;20023;-72
2022/12/20 05:12:12;;;;;;;141.52;102.18;;;;;;;;;;5092860;28;20452;-72
2022/12/20 05:14:38;;;;;;;129.07;94.97;;;;;;;;;;5102736;28;20419;-72
2022/12/20 05:17:03;;;;;;;136.32;97.85;;;;;;;;;;5102424;28;21674;-72
2022/12/20 05:19:28;;;;;;;146.35;102.35;;;;;;;;;;5102027;28;20354;-73
2022/12/20 05:27:22;;;;;;;122.38;83.78;;;;;;;;;;5097606;28;20354;-73
2022/12/20 05:29:47;;;;;;;102.25;71.13;;;;;;;;;;5101807;28;20024;-74
2022/12/20 05:32:12;;;;;;;136.75;91.43;;;;;;;;;;5101948;28;21048;-73
2022/12/20 05:34:38;;;;;;;126.78;87.43;;;;;;;;;;5090309;28;20467;-73
2022/12/20 05:37:03;;;;;;;130.52;89.18;;;;;;;;;;5102809;28;20114;-72
2022/12/20 05:39:28;;;;;;;116.22;82.10;;;;;;;;;;5102205;28;20423;-73
2022/12/20 05:41:54;;;;;;;132.95;93.00;;;;;;;;;;5101857;28;20063;-72
2022/12/20 05:44:21;;;;;;;151.10;101.45;;;;;;;;;;5097929;28;20024;-74
2022/12/20 05:46:46;;;;;;;148.93;98.10;;;;;;;;;;5093891;28;20114;-73
2022/12/20 05:49:11;;;;;;;150.75;113.55;;;;;;;;;;5098920;28;20122;-72
2022/12/20 05:51:37;;;;;;;158.13;124.38;;;;;;;;;;5100383;28;20111;-74
2022/12/20 05:54:02;;;;;;;181.98;138.13;;;;;;;;;;5100146;28;20024;-73
2022/12/20 05:56:28;;;;;;;169.07;122.30;;;;;;;;;;5100643;28;20103;-73
2022/12/20 05:58:53;;;;;;;167.13;112.80;;;;;;;;;;5101319;28;20181;-73
2022/12/20 06:01:19;;;;;;;146.25;107.85;;;;;;;;;;5097818;28;20015;-75
2022/12/20 06:03:44;;;;;;;133.18;96.70;;;;;;;;;;5087501;28;20052;-73
2022/12/20 06:06:10;;;;;;;123.90;88.82;;;;;;;;;;5089949;28;20039;-75
2022/12/20 06:08:36;;;;;;;123.18;90.28;;;;;;;;;;5101437;28;20027;-75
2022/12/20 06:11:03;;;;;;;155.25;111.63;;;;;;;;;;5101624;28;20092;-73
2022/12/20 06:13:29;;;;;;;186.85;131.20;;;;;;;;;;5101576;28;20035;-73
2022/12/20 06:15:54;;;;;;;179.25;131.65;;;;;;;;;;5100729;28;20340;-77
2022/12/20 06:18:20;;;;;;;180.75;134.63;;;;;;;;;;5101558;28;20456;-77
2022/12/20 06:20:49;;;;;;;178.43;132.23;;;;;;;;;;5090767;28;20397;-75
2022/12/20 06:23:14;;;;;;;179.67;131.17;;;;;;;;;;5087884;28;20039;-72
2022/12/20 06:25:39;;;;;;;233.02;168.85;;;;;;;;;;5100556;28;20749;-75
2022/12/20 06:28:06;;;;;;;229.93;172.27;;;;;;;;;;5102280;28;20031;-73
2022/12/20 06:30:31;;;;;;;153.77;115.88;;;;;;;;;;5104891;28;20031;-73
2022/12/20 06:32:57;;;;;;;155.07;113.35;;;;;;;;;;5091825;28;20513;-72
2022/12/20 06:35:22;;;;;;;185.20;135.38;;;;;;;;;;5091339;28;20046;-72
2022/12/20 06:37:47;;;;;;;160.05;117.35;;;;;;;;;;5093706;28;20023;-73
2022/12/20 06:40:13;;;;;;;197.85;143.25;;;;;;;;;;5080713;28;20024;-73
2022/12/20 06:42:38;;;;;;;261.00;184.77;;;;;;;;;;5099083;28;20046;-76
2022/12/20 06:45:05;;;;;;;165.43;124.82;;;;;;;;;;5099608;28;20023;-73
2022/12/20 06:47:30;;;;;;;158.90;115.40;;;;;;;;;;5105208;28;20350;-73
2022/12/20 06:49:55;;;;;;;173.63;128.30;;;;;;;;;;5105164;28;20024;-75
2022/12/20 06:52:21;;;;;;;196.50;138.18;;;;;;;;;;5097036;28;20035;-73
2022/12/20 06:54:46;;;;;;;133.30;92.13;;;;;;;;;;5091304;28;20763;-73
2022/12/20 06:57:11;;;;;;;138.20;103.93;;;;;;;;;;5097138;28;20042;-72
2022/12/20 06:59:37;;;;;;;148.05;109.60;;;;;;;;;;5105219;28;20038;-73
2022/12/20 07:02:02;;;;;;;171.27;122.57;;;;;;;;;;5103910;28;20046;-71
2022/12/20 07:04:27;;;;;;;100.72;70.63;;;;;;;;;;5103195;28;20121;-75
2022/12/20 07:06:53;;;;;;;140.85;97.07;;;;;;;;;;5103564;28;20111;-73
2022/12/20 07:09:18;;;;;;;99.82;73.28;;;;;;;;;;5090071;28;20299;-77
2022/12/20 07:11:43;;;;;;;92.32;72.05;;;;;;;;;;5104257;28;20410;-73
2022/12/20 07:14:09;;;;;;;105.82;75.35;;;;;;;;;;5104333;28;20061;-73
2022/12/20 07:16:35;;;;;;;116.55;82.68;;;;;;;;;;5105109;28;20035;-73
2022/12/20 07:19:01;;;;;;;142.02;104.82;;;;;;;;;;5103755;28;20088;-73
2022/12/20 07:21:26;;;;;;;101.80;73.43;;;;;;;;;;5092898;28;20442;-76
2022/12/20 07:23:52;;;;;;;158.98;111.20;;;;;;;;;;5104206;28;20028;-75
2022/12/20 07:26:17;;;;;;;108.28;83.63;;;;;;;;;;5104230;28;20016;-75
2022/12/20 07:28:43;;;;;;;133.05;94.90;;;;;;;;;;5104845;28;20347;-73
2022/12/20 07:31:09;;;;;;;184.15;133.77;;;;;;;;;;5103964;28;20067;-73
2022/12/20 07:33:36;;;;;;;138.35;99.00;;;;;;;;;;5104196;28;20116;-72
2022/12/20 07:36:02;;;;;;;160.02;114.20;;;;;;;;;;5103694;28;20444;-72
2022/12/20 07:38:28;;;;;;;215.43;145.80;;;;;;;;;;5103865;27;20084;-73
2022/12/20 07:40:54;;;;;;;200.88;137.23;;;;;;;;;;5103720;28;20469;-75
2022/12/20 07:43:19;;;;;;;97.82;71.78;;;;;;;;;;5103798;28;20024;-73
2022/12/20 07:45:46;;;;;;;66.57;46.80;;;;;;;;;;5103722;27;20145;-72
2022/12/20 07:48:11;;;;;;;65.40;47.17;;;;;;;;;;5103653;28;20031;-72
2022/12/20 07:50:37;;;;;;;68.28;50.42;;;;;;;;;;5103094;28;20074;-75
2022/12/20 07:53:04;;;;;;;131.88;97.25;;;;;;;;;;5090192;28;20084;-75
2022/12/20 07:55:30;;;;;;;117.47;83.38;;;;;;;;;;5098735;28;20031;-72
2022/12/20 07:57:59;;;;;;;54.78;39.67;;;;;;;;;;5103219;28;20023;-72
2022/12/20 08:00:24;;;;;;;50.80;38.93;;;;;;;;;;5103366;28;20031;-73
2022/12/20 08:02:53;;;;;;;71.93;52.72;;;;;;;;;;5102839;28;20020;-74
2022/12/20 08:05:18;;;;;;;71.35;52.25;;;;;;;;;;5101863;28;21010;-73
2022/12/20 08:07:45;;;;;;;64.13;45.83;;;;;;;;;;5103087;28;20031;-75
2022/12/20 08:10:12;;;;;;;61.08;45.15;;;;;;;;;;5102043;28;20024;-72
2022/12/20 08:12:37;;;;;;;62.58;45.97;;;;;;;;;;5091029;28;20727;-72
2022/12/20 08:15:03;;;;;;;57.78;43.80;;;;;;;;;;5075407;28;20046;-75
2022/12/20 08:17:28;;;;;;;61.95;47.10;;;;;;;;;;5088389;28;20046;-75
2022/12/20 08:19:56;;;;;;;66.25;49.40;;;;;;;;;;5093404;28;20446;-74
2022/12/20 08:22:21;;;;;;;55.33;41.72;;;;;;;;;;5102868;28;20039;-73
2022/12/20 08:24:47;;;;;;;50.83;38.17;;;;;;;;;;5095136;28;20431;-74
2022/12/20 08:27:14;;;;;;;52.22;37.72;;;;;;;;;;5088302;28;20015;-74
2022/12/20 08:29:39;;;;;;;60.50;46.40;;;;;;;;;;5089002;27;20279;-74
2022/12/20 08:32:05;;;;;;;65.40;48.42;;;;;;;;;;5089200;28;21134;-72
2022/12/20 08:34:30;;;;;;;82.43;59.40;;;;;;;;;;5089387;28;20034;-72
2022/12/20 08:36:56;;;;;;;69.90;51.30;;;;;;;;;;5088642;28;20064;-73
2022/12/20 08:39:21;;;;;;;110.38;79.57;;;;;;;;;;5089561;28;20107;-72
2022/12/20 08:41:46;;;;;;;100.95;76.70;;;;;;;;;;5088689;28;20042;-72
2022/12/20 08:44:12;;;;;;;120.50;91.60;;;;;;;;;;5089567;28;20020;-71
2022/12/20 08:46:37;;;;;;;183.25;120.80;;;;;;;;;;5098152;28;20387;-73
2022/12/20 08:49:03;;;;;;;315.30;203.15;;;;;;;;;;5088333;28;20019;-73
2022/12/20 08:51:28;;;;;;;151.77;101.85;;;;;;;;;;5088747;28;20031;-71
2022/12/20 08:53:54;;;;;;;165.80;109.65;;;;;;;;;;5084685;28;20032;-72
2022/12/20 08:56:20;;;;;;;76.63;56.55;;;;;;;;;;5089075;28;20047;-69
2022/12/20 08:58:46;;;;;;;103.13;78.22;;;;;;;;;;5102436;28;20118;-73
2022/12/20 09:01:12;;;;;;;186.18;129.63;;;;;;;;;;5095848;28;20084;-71
2022/12/20 09:03:39;;;;;;;114.72;85.63;;;;;;;;;;5087688;28;20028;-72
2022/12/20 09:06:05;;;;;;;80.72;56.45;;;;;;;;;;5088986;28;20061;-74
2022/12/20 09:08:31;;;;;;;61.88;46.75;;;;;;;;;;5091886;28;20370;-71
2022/12/20 09:11:02;;;;;;;136.75;96.07;;;;;;;;;;5087897;28;20023;-71
2022/12/20 09:13:28;;;;;;;120.25;85.20;;;;;;;;;;5097319;28;20050;-72
2022/12/20 09:15:53;;;;;;;123.82;79.82;;;;;;;;;;5093466;28;20028;-74
2022/12/20 09:18:18;;;;;;;106.68;76.22;;;;;;;;;;5097292;28;20075;-71
2022/12/20 09:20:44;;;;;;;91.07;64.13;;;;;;;;;;5100985;28;20062;-71
2022/12/20 09:23:09;;;;;;;170.43;106.50;;;;;;;;;;5100048;28;20087;-72
2022/12/20 09:25:36;;;;;;;156.90;124.90;;;;;;;;;;5101427;28;20031;-73
2022/12/20 09:28:01;;;;;;;75.43;57.05;;;;;;;;;;5100905;28;20024;-70
2022/12/20 09:30:27;;;;;;;217.27;133.68;;;;;;;;;;5099879;28;20019;-70
2022/12/20 09:32:52;;;;;;;101.07;68.90;;;;;;;;;;5090244;28;20036;-71
2022/12/20 09:35:17;;;;;;;68.65;50.47;;;;;;;;;;5100389;28;20065;-72
2022/12/20 09:37:43;;;;;;;118.32;83.57;;;;;;;;;;5101165;28;20049;-70
2022/12/20 09:40:19;;;;;;;89.65;63.33;;;;;;;;;;5102219;28;20027;-72
2022/12/20 09:42:45;;;;;;;47.08;35.72;;;;;;;;;;5101712;28;20032;-70
2022/12/20 09:45:18;;;;;;;71.88;52.83;;;;;;;;;;5101659;28;20056;-72
2022/12/20 09:47:44;;;;;;;92.35;70.85;;;;;;;;;;5101659;28;20028;-71
2022/12/20 09:50:13;;;;;;;70.22;53.10;;;;;;;;;;5102580;28;20024;-71
2022/12/20 09:52:45;;;;;;;88.50;62.90;;;;;;;;;;5102199;28;20083;-71
2022/12/20 09:55:21;;;;;;;87.20;62.92;;;;;;;;;;5101364;28;20035;-72
2022/12/20 09:57:46;;;;;;;135.40;97.60;;;;;;;;;;5087742;28;20034;-71
2022/12/20 10:00:16;;;;;;;99.70;75.13;;;;;;;;;;5101859;28;20111;-70
2022/12/20 10:02:41;;;;;;;90.38;68.05;;;;;;;;;;5102282;28;20044;-71
2022/12/20 10:05:18;;;;;;;65.85;49.42;;;;;;;;;;5104962;28;20118;-71
2022/12/20 10:07:49;;;;;;;62.30;47.35;;;;;;;;;;5105187;28;20062;-70
2022/12/20 10:10:14;;;;;;;83.88;63.38;;;;;;;;;;5105665;28;20041;-71
2022/12/20 10:12:40;;;;;;;53.17;39.72;;;;;;;;;;5105711;28;20460;-71
2022/12/20 10:15:05;;;;;;;40.22;29.75;;;;;;;;;;5106146;28;20023;-71
2022/12/20 10:17:38;;;;;;;63.42;44.15;;;;;;;;;;5105535;28;20008;-71
2022/12/20 10:20:13;;;;;;;135.57;95.32;;;;;;;;;;5105726;28;20330;-71
2022/12/20 10:22:48;;;;;;;92.38;66.68;;;;;;;;;;5105739;28;20120;-70
2022/12/20 10:25:13;;;;;;;53.92;38.15;;;;;;;;;;5105834;28;20027;-70
2022/12/20 10:27:42;;;;;;;55.60;40.15;;;;;;;;;;5105635;28;20085;-70
2022/12/20 10:30:14;;;;;;;86.18;60.42;;;;;;;;;;5105563;28;20032;-74
2022/12/20 10:32:43;;;;;;;54.47;42.60;;;;;;;;;;5105281;28;20066;-70
2022/12/20 10:35:08;;;;;;;52.20;40.03;;;;;;;;;;5104595;28;20034;-72
2022/12/20 10:37:33;;;;;;;59.40;45.70;;;;;;;;;;5104442;28;20912;-72
2022/12/20 10:39:59;;;;;;;66.95;49.58;;;;;;;;;;5106092;28;20111;-71
2022/12/20 10:42:33;;;;;;;73.78;58.22;;;;;;;;;;5104963;28;21030;-73
2022/12/20 10:44:58;;;;;;;53.80;43.08;;;;;;;;;;5104806;28;20055;-71
2022/12/20 10:47:44;;;;;;;72.65;54.33;;;;;;;;;;5105107;28;20105;-70
2022/12/20 10:50:14;;;;;;;86.22;61.63;;;;;;;;;;5104615;28;20359;-70
2022/12/20 10:52:39;;;;;;;92.78;72.05;;;;;;;;;;5104278;28;20023;-72
2022/12/20 10:55:25;;;;;;;50.85;39.05;;;;;;;;;;5105140;28;20024;-72
2022/12/20 10:57:50;;;;;;;89.80;69.85;;;;;;;;;;5104744;28;20020;-71
2022/12/20 11:00:26;;;;;;;70.28;54.33;;;;;;;;;;5105083;28;20088;-71
2022/12/20 11:03:04;;;;;;;59.85;46.35;;;;;;;;;;5104583;28;20034;-71
2022/12/20 11:05:29;;;;;;;65.32;52.90;;;;;;;;;;5104265;28;20487;-71
2022/12/20 11:07:57;;;;;;;51.78;41.13;;;;;;;;;;5104028;28;20019;-72
2022/12/20 11:10:26;;;;;;;48.97;39.67;;;;;;;;;;5105385;28;20019;-71
2022/12/20 11:12:55;;;;;;;49.92;37.42;;;;;;;;;;5104832;28;20023;-72
2022/12/20 11:15:22;;;;;;;49.85;35.33;;;;;;;;;;5104626;28;20047;-71
2022/12/20 11:17:50;;;;;;;62.58;44.30;;;;;;;;;;5104503;28;20027;-72
2022/12/20 11:20:22;;;;;;;135.30;79.90;;;;;;;;;;5104830;28;20110;-71
2022/12/20 11:23:10;;;;;;;189.30;113.18;;;;;;;;;;5104181;28;20463;-71
2022/12/20 11:25:43;;;;;;;92.45;61.33;;;;;;;;;;5103186;28;20048;-71
2022/12/20 11:28:09;;;;;;;113.82;75.35;;;;;;;;;;5104534;28;20113;-71
2022/12/20 11:30:34;;;;;;;123.15;83.30;;;;;;;;;;5104313;28;21076;-74
2022/12/20 11:33:14;;;;;;;62.97;47.83;;;;;;;;;;5103901;28;20028;-71
2022/12/20 11:35:51;;;;;;;76.82;54.92;;;;;;;;;;5103611;28;20028;-70
2022/12/20 11:38:22;;;;;;;333.60;203.85;;;;;;;;;;5104129;28;20483;-73
2022/12/20 11:40:53;;;;;;;134.88;87.88;;;;;;;;;;5103702;28;20028;-72
2022/12/20 11:43:29;;;;;;;86.95;58.05;;;;;;;;;;5104312;28;20024;-72
2022/12/20 11:45:55;;;;;;;80.35;58.30;;;;;;;;;;5104227;28;20061;-72
2022/12/20 11:48:43;;;;;;;107.90;76.28;;;;;;;;;;5103754;28;20024;-74
2022/12/20 11:51:17;;;;;;;116.72;74.10;;;;;;;;;;5103768;28;20035;-73
2022/12/20 11:53:42;;;;;;;278.92;162.65;;;;;;;;;;5102744;28;20027;-72
2022/12/20 11:56:12;;;;;;;138.60;80.55;;;;;;;;;;5103400;28;20034;-73
2022/12/20 11:58:51;;;;;;;53.78;38.17;;;;;;;;;;5103581;28;20023;-73
2022/12/20 12:01:39;;;;;;;90.37;57.70;;;;;;;;;;5103785;28;20046;-71
2022/12/20 12:04:12;;;;;;;76.47;53.10;;;;;;;;;;5095323;28;20698;-72
2022/12/20 12:06:40;;;;;;;71.95;52.38;;;;;;;;;;5103364;28;20100;-72
2022/12/20 12:09:14;;;;;;;69.32;51.13;;;;;;;;;;5104283;28;20030;-70
2022/12/20 12:11:48;;;;;;;82.60;58.92;;;;;;;;;;5101947;28;20098;-72
2022/12/20 12:14:15;;;;;;;74.75;53.88;;;;;;;;;;5103233;28;20331;-70
2022/12/20 12:16:44;;;;;;;88.35;63.13;;;;;;;;;;5103655;28;20015;-70
2022/12/20 12:19:11;;;;;;;90.60;65.10;;;;;;;;;;5103714;28;20383;-71
2022/12/20 12:21:39;;;;;;;89.88;64.90;;;;;;;;;;5102812;28;20350;-71
2022/12/20 12:24:23;;;;;;;83.18;59.40;;;;;;;;;;5103708;28;20038;-70
2022/12/20 12:26:49;;;;;;;63.47;47.47;;;;;;;;;;5102641;28;20107;-71
2022/12/20 12:29:15;;;;;;;129.55;93.30;;;;;;;;;;5102323;28;20494;-72
2022/12/20 12:31:50;;;;;;;78.82;58.25;;;;;;;;;;5103022;28;20035;-75
2022/12/20 12:34:24;;;;;;;64.95;46.95;;;;;;;;;;5102953;28;20032;-73
2022/12/20 12:36:55;;;;;;;140.65;93.47;;;;;;;;;;5115812;27;20350;-72
2022/12/20 12:39:33;;;;;;;90.80;64.20;;;;;;;;;;5102122;28;20054;-71
2022/12/20 12:42:08;;;;;;;185.68;126.60;;;;;;;;;;5102332;28;20074;-70
2022/12/20 12:44:45;;;;;;;165.10;115.13;;;;;;;;;;5103243;28;20107;-70
2022/12/20 12:47:18;;;;;;;95.47;71.82;;;;;;;;;;5103324;28;20123;-70
2022/12/20 12:49:46;;;;;;;64.03;49.33;;;;;;;;;;5102625;28;20027;-70
2022/12/20 12:52:26;;;;;;;64.30;49.15;;;;;;;;;;5102255;28;20028;-70
2022/12/20 12:54:51;;;;;;;;;;;;;;;;;;5103644;28;20032;-70
2022/12/20 12:57:17;;;;;;;120.82;84.00;;;;;;;;;;5102928;28;20269;-70
2022/12/20 12:59:47;;;;;;;76.13;55.33;;;;;;;;;;5102865;28;20062;-70
2022/12/20 13:02:12;;;;;;;62.42;46.10;;;;;;;;;;5102016;28;20370;-71
2022/12/20 13:04:54;;;;;;;53.05;40.55;;;;;;;;;;5102752;28;20024;-69
2022/12/20 13:07:26;;;;;;;41.22;33.03;;;;;;;;;;5101403;28;20055;-71
2022/12/20 13:09:51;;;;;;;37.65;28.55;;;;;;;;;;5101370;28;20031;-72
2022/12/20 13:12:35;;;;;;;57.58;42.10;;;;;;;;;;5102463;28;20480;-70
2022/12/20 13:15:00;;;;;;;46.08;36.00;;;;;;;;;;5092060;28;20350;-74
2022/12/20 13:17:28;;;;;;;54.45;42.95;;;;;;;;;;5101739;28;20027;-71
2022/12/20 13:19:54;;;;;;;139.48;99.47;;;;;;;;;;5101680;28;20023;-71
2022/12/20 13:22:21;;;;;;;87.40;64.18;;;;;;;;;;5101764;28;20082;-71
2022/12/20 13:24:49;;;;;;;83.15;61.00;;;;;;;;;;5102659;28;20027;-72
2022/12/20 13:27:21;;;;;;;65.00;50.45;;;;;;;;;;5101590;28;20023;-70
2022/12/20 13:29:53;;;;;;;97.88;75.03;;;;;;;;;;5102457;28;20036;-73
2022/12/20 13:32:48;;;;;;;73.68;58.15;;;;;;;;;;5101184;28;20729;-72
2022/12/20 13:35:28;;;;;;;68.55;51.58;;;;;;;;;;5088161;28;20127;-76
2022/12/20 13:37:53;;;;;;;86.03;64.80;;;;;;;;;;5104209;28;20031;-72
2022/12/20 13:40:21;;;;;;;122.45;90.47;;;;;;;;;;5106549;28;20032;-71
2022/12/20 13:42:50;;;;;;;132.63;91.97;;;;;;;;;;5107067;28;21016;-72
2022/12/20 13:45:15;;;;;;;73.28;57.28;;;;;;;;;;5106072;28;20114;-72
2022/12/20 13:47:45;;;;;;;260.35;161.85;;;;;;;;;;5106367;28;20087;-72
2022/12/20 13:50:20;;;;;;;58.88;44.05;;;;;;;;;;5106663;28;20059;-72
2022/12/20 13:52:45;;;;;;;45.50;33.83;;;;;;;;;;5105998;28;20043;-74
2022/12/20 13:55:30;;;;;;;39.60;31.58;;;;;;;;;;5106876;28;20084;-73
2022/12/20 13:57:56;;;;;;;45.75;36.58;;;;;;;;;;5106585;28;20073;-75
2022/12/20 14:00:24;;;;;;;57.00;44.85;;;;;;;;;;5106089;28;20024;-71
2022/12/20 14:02:50;;;;;;;63.33;47.85;;;;;;;;;;5092186;28;20035;-72
2022/12/20 14:05:18;;;;;;;64.63;49.65;;;;;;;;;;5106315;28;20016;-71
2022/12/20 14:07:45;;;;;;;67.53;48.38;;;;;;;;;;5105395;28;20032;-73
2022/12/20 14:10:22;;;;;;;66.82;47.80;;;;;;;;;;5106091;28;20031;-73
2022/12/20 14:12:49;;;;;;;77.90;55.40;;;;;;;;;;5106316;28;20042;-71
2022/12/20 14:15:21;;;;;;;71.75;55.85;;;;;;;;;;5105643;28;20051;-75
2022/12/20 14:17:46;;;;;;;50.30;38.55;;;;;;;;;;5105467;28;20105;-72
2022/12/20 14:20:15;;;;;;;47.38;35.97;;;;;;;;;;5105205;28;20028;-74
2022/12/20 14:23:12;;;;;;;40.90;31.98;;;;;;;;;;5105289;28;20036;-72
2022/12/20 14:25:56;;;;;;;67.25;53.83;;;;;;;;;;4981527;28;20045;-72
2022/12/20 14:28:43;;;;;;;68.78;54.45;;;;;;;;;;4994723;28;20134;-76